Time;durP1;ratioP1;P1;durP2;ratioP2;P2;SDS_P1;SDS_P2;PMS_P1;PMS_P2;Temp;Humidity;BMP_temperature;BMP_pressure;BME280_temperature;BME280_humidity;BME280_pressure;Samples;Min_cycle;Max_cycle;Signal;HPM_P1;HPM_P2
2022/10/30 00:00:28;;;;;;;2.60;2.13;;;10.10;99.90;;;;;;5096940;28;20426;-66
2022/10/30 00:02:54;;;;;;;2.35;2.15;;;10.10;99.90;;;;;;5100402;28;20436;-66
2022/10/30 00:05:22;;;;;;;4.45;1.75;;;10.00;99.90;;;;;;5103379;27;20422;-66
2022/10/30 00:07:49;;;;;;;2.10;2.00;;;10.00;99.90;;;;;;5094309;27;20428;-66
2022/10/30 00:10:17;;;;;;;4.47;2.40;;;10.00;99.90;;;;;;5099218;27;20424;-66
2022/10/30 00:12:43;;;;;;;2.45;2.08;;;10.00;99.90;;;;;;5096786;27;20472;-66
2022/10/30 00:15:10;;;;;;;3.93;1.93;;;10.00;99.90;;;;;;5099250;28;21086;-66
2022/10/30 00:17:37;;;;;;;2.72;1.70;;;10.00;99.90;;;;;;5090536;28;21009;-66
2022/10/30 00:20:05;;;;;;;2.35;2.15;;;9.90;99.90;;;;;;5099523;27;20423;-66
2022/10/30 00:22:32;;;;;;;3.75;1.75;;;9.90;99.90;;;;;;5090411;28;20793;-66
2022/10/30 00:24:59;;;;;;;1.75;1.30;;;9.90;99.90;;;;;;5088235;28;20430;-66
2022/10/30 00:27:27;;;;;;;1.17;1.02;;;9.80;99.90;;;;;;5091808;28;20428;-66
2022/10/30 00:29:53;;;;;;;1.38;1.27;;;9.80;99.90;;;;;;5103603;27;20907;-66
2022/10/30 00:32:20;;;;;;;1.67;1.58;;;9.80;99.90;;;;;;5096722;28;20445;-66
2022/10/30 00:34:46;;;;;;;1.52;1.38;;;9.80;99.90;;;;;;5095114;27;20424;-66
2022/10/30 00:37:13;;;;;;;1.90;1.55;;;9.70;99.90;;;;;;5104553;28;20423;-66
2022/10/30 00:39:40;;;;;;;1.27;1.27;;;9.60;99.90;;;;;;5098504;28;20422;-66
2022/10/30 00:42:11;;;;;;;1.30;1.00;;;9.50;99.90;;;;;;5095486;28;20426;-66
2022/10/30 00:44:46;;;;;;;1.73;1.57;;;9.50;99.90;;;;;;5090458;28;20429;-66
2022/10/30 00:47:25;;;;;;;1.27;1.17;;;9.50;99.90;;;;;;5102490;28;20435;-66
2022/10/30 00:50:12;;;;;;;1.77;1.67;;;9.50;99.90;;;;;;5083926;27;20434;-66
2022/10/30 00:52:57;;;;;;;1.60;1.50;;;9.50;99.90;;;;;;5098238;28;20427;-66
2022/10/30 00:55:29;;;;;;;1.63;1.52;;;9.60;99.90;;;;;;5096351;27;20445;-66
2022/10/30 00:57:59;;;;;;;1.30;1.30;;;9.60;99.90;;;;;;5090850;28;20427;-66
2022/10/30 01:00:30;;;;;;;1.77;1.67;;;9.60;99.90;;;;;;5093563;28;20433;-66
2022/10/30 01:02:57;;;;;;;2.65;2.03;;;9.60;99.90;;;;;;5088158;28;20449;-66
2022/10/30 01:05:27;;;;;;;1.75;1.65;;;9.70;99.90;;;;;;5098781;27;20424;-66
2022/10/30 01:07:54;;;;;;;2.22;2.03;;;9.70;99.90;;;;;;5096124;27;20875;-66
2022/10/30 01:10:24;;;;;;;1.90;1.80;;;9.80;99.90;;;;;;5103918;28;20490;-66
2022/10/30 01:12:52;;;;;;;2.50;2.05;;;9.80;99.90;;;;;;5101508;28;20434;-66
2022/10/30 01:15:25;;;;;;;3.85;2.60;;;10.00;99.90;;;;;;5082399;28;20424;-66
2022/10/30 01:18:22;;;;;;;2.10;1.98;;;9.90;99.90;;;;;;5103094;27;20488;-66
2022/10/30 01:21:08;;;;;;;4.03;2.53;;;9.90;99.90;;;;;;5102912;27;20501;-66
2022/10/30 01:24:08;;;;;;;2.85;2.55;;;9.90;99.90;;;;;;5101418;27;20439;-66
2022/10/30 01:26:55;;;;;;;3.92;2.47;;;9.80;99.90;;;;;;4996782;28;20988;-66
2022/10/30 01:29:40;;;;;;;2.78;2.00;;;9.80;99.90;;;;;;5086578;28;20426;-66
2022/10/30 01:32:32;;;;;;;2.25;1.88;;;9.70;99.90;;;;;;5096507;27;20434;-66
2022/10/30 01:35:15;;;;;;;4.53;2.17;;;9.80;99.90;;;;;;5092446;28;20429;-66
2022/10/30 01:38:01;;;;;;;3.72;2.40;;;9.80;99.90;;;;;;5094803;28;20814;-66
2022/10/30 01:40:28;;;;;;;2.08;1.65;;;9.70;99.90;;;;;;5094927;27;20470;-66
2022/10/30 01:42:57;;;;;;;1.63;1.58;;;9.60;99.90;;;;;;5105334;27;20448;-66
2022/10/30 01:45:53;;;;;;;1.80;1.65;;;9.50;99.90;;;;;;5087330;27;20434;-66
2022/10/30 01:48:48;;;;;;;2.58;2.05;;;9.50;99.90;;;;;;5103908;28;20480;-66
2022/10/30 01:51:54;;;;;;;2.38;1.80;;;9.40;99.90;;;;;;5095009;28;20424;-66
2022/10/30 01:54:27;;;;;;;3.28;2.20;;;9.30;99.90;;;;;;5063602;28;20434;-66
2022/10/30 01:57:00;;;;;;;3.75;2.13;;;9.30;99.90;;;;;;5061086;28;20584;-66
2022/10/30 01:59:50;;;;;;;2.50;1.85;;;9.30;99.90;;;;;;5062210;28;20447;-66
2022/10/30 02:02:17;;;;;;;2.38;1.98;;;9.40;99.90;;;;;;5061526;28;21518;-66
2022/10/30 02:04:44;;;;;;;2.15;2.00;;;9.40;99.90;;;;;;5063660;28;20924;-66
2022/10/30 02:07:11;;;;;;;1.60;1.50;;;9.40;99.90;;;;;;5063039;28;20439;-66
2022/10/30 02:09:39;;;;;;;2.38;1.98;;;9.30;99.90;;;;;;5060288;28;20419;-66
2022/10/30 02:12:08;;;;;;;2.70;2.45;;;9.40;99.90;;;;;;5059176;28;20453;-66
2022/10/30 02:14:40;;;;;;;2.05;1.88;;;9.50;99.90;;;;;;5059202;28;20444;-66
2022/10/30 02:17:08;;;;;;;2.38;2.20;;;9.50;99.90;;;;;;5060192;28;21035;-66
2022/10/30 02:19:34;;;;;;;1.70;1.65;;;9.40;99.90;;;;;;5064282;28;20435;-66
2022/10/30 02:22:02;;;;;;;2.13;2.03;;;9.30;99.90;;;;;;5062045;28;20450;-66
2022/10/30 02:24:30;;;;;;;2.20;2.10;;;9.40;99.90;;;;;;5058082;28;20493;-66
2022/10/30 02:26:57;;;;;;;1.63;1.40;;;9.30;99.90;;;;;;5094134;28;20430;-66
2022/10/30 02:29:26;;;;;;;2.03;1.93;;;9.40;99.90;;;;;;5093795;27;20436;-66
2022/10/30 02:31:55;;;;;;;5.47;2.10;;;9.40;99.90;;;;;;5083196;28;20432;-66
2022/10/30 02:34:21;;;;;;;2.42;2.22;;;9.50;99.90;;;;;;5097764;28;20434;-66
2022/10/30 02:36:48;;;;;;;1.95;1.80;;;9.50;99.90;;;;;;5089165;28;20433;-66
2022/10/30 02:39:15;;;;;;;1.97;1.40;;;9.60;99.90;;;;;;5094236;28;20939;-66
2022/10/30 02:41:41;;;;;;;1.95;1.80;;;9.60;99.90;;;;;;5089049;28;20426;-66
2022/10/30 02:44:08;;;;;;;2.90;2.08;;;9.70;99.90;;;;;;5098139;28;20445;-66
2022/10/30 02:46:38;;;;;;;1.92;1.75;;;9.70;99.90;;;;;;5082934;28;20475;-66
2022/10/30 02:49:05;;;;;;;1.98;1.80;;;9.70;99.90;;;;;;5094818;28;20423;-66
2022/10/30 02:51:32;;;;;;;3.10;2.10;;;9.70;99.90;;;;;;5093195;28;20416;-66
2022/10/30 02:53:59;;;;;;;2.13;2.03;;;9.70;99.90;;;;;;5102731;28;20424;-66
2022/10/30 02:56:26;;;;;;;3.70;1.80;;;9.60;99.90;;;;;;5097211;28;20477;-66
2022/10/30 02:58:55;;;;;;;1.92;1.83;;;9.60;99.90;;;;;;5098010;28;20430;-66
2022/10/30 03:01:22;;;;;;;1.77;1.67;;;9.70;99.90;;;;;;5101317;28;20939;-66
2022/10/30 03:03:49;;;;;;;1.40;1.40;;;9.70;99.90;;;;;;5093623;28;20417;-66
2022/10/30 03:06:19;;;;;;;1.92;1.75;;;9.70;99.90;;;;;;5100844;28;20436;-66
2022/10/30 03:08:45;;;;;;;2.45;1.80;;;9.70;99.90;;;;;;5099429;28;20435;-66
2022/10/30 03:11:17;;;;;;;1.30;1.27;;;9.60;99.90;;;;;;5097002;28;20798;-66
2022/10/30 03:13:47;;;;;;;3.38;1.42;;;9.70;99.90;;;;;;5101514;28;20543;-66
2022/10/30 03:16:23;;;;;;;1.47;1.37;;;9.70;99.90;;;;;;5099125;28;20421;-66
2022/10/30 03:18:51;;;;;;;1.65;1.55;;;9.70;99.90;;;;;;5092906;28;20524;-66
2022/10/30 03:21:21;;;;;;;3.38;2.10;;;9.70;99.90;;;;;;5092784;28;20433;-66
2022/10/30 03:23:51;;;;;;;1.88;1.77;;;9.70;99.90;;;;;;5091312;28;20946;-66
2022/10/30 03:26:18;;;;;;;2.20;1.95;;;9.70;99.90;;;;;;5077074;28;20422;-66
2022/10/30 03:28:45;;;;;;;1.77;1.67;;;9.60;99.90;;;;;;5093765;28;20432;-66
2022/10/30 03:31:14;;;;;;;2.78;2.42;;;9.60;99.90;;;;;;5097739;28;20452;-66
2022/10/30 03:33:41;;;;;;;1.63;1.40;;;9.60;99.90;;;;;;5088853;28;20994;-66
2022/10/30 03:36:09;;;;;;;2.20;1.60;;;9.60;99.90;;;;;;5096508;28;20969;-66
2022/10/30 03:38:36;;;;;;;1.30;1.30;;;9.50;99.90;;;;;;5094175;27;20430;-66
2022/10/30 03:41:04;;;;;;;1.67;1.15;;;9.40;99.90;;;;;;5092112;27;20424;-66
2022/10/30 03:43:31;;;;;;;2.47;1.48;;;9.40;99.90;;;;;;5100274;27;20426;-66
2022/10/30 03:45:58;;;;;;;2.90;1.40;;;9.30;99.90;;;;;;5103055;27;23108;-66
2022/10/30 03:48:26;;;;;;;1.48;1.38;;;9.30;99.90;;;;;;5108410;28;20423;-66
2022/10/30 03:50:54;;;;;;;1.13;1.08;;;9.30;99.90;;;;;;5103384;27;20779;-66
2022/10/30 03:53:22;;;;;;;1.27;1.27;;;9.20;99.90;;;;;;5094499;27;20426;-66
2022/10/30 03:55:49;;;;;;;1.13;1.13;;;9.20;99.90;;;;;;5099605;28;20442;-66
2022/10/30 03:58:16;;;;;;;2.08;1.35;;;9.20;99.90;;;;;;5099823;28;22871;-66
2022/10/30 04:00:46;;;;;;;1.27;1.20;;;9.30;99.90;;;;;;5091106;28;20434;-66
2022/10/30 04:03:12;;;;;;;2.20;1.25;;;9.30;99.90;;;;;;5102258;28;20469;-66
2022/10/30 04:05:45;;;;;;;1.20;1.20;;;9.30;99.90;;;;;;5090950;28;20425;-66
2022/10/30 04:08:13;;;;;;;1.27;1.17;;;9.30;99.90;;;;;;5092592;28;20426;-66
2022/10/30 04:10:44;;;;;;;4.60;1.27;;;9.20;99.90;;;;;;5095232;28;20430;-66
2022/10/30 04:13:13;;;;;;;1.57;1.47;;;9.20;99.90;;;;;;5101686;28;20429;-66
2022/10/30 04:15:39;;;;;;;4.32;1.55;;;9.20;99.90;;;;;;5103604;27;21125;-66
2022/10/30 04:18:09;;;;;;;1.70;1.50;;;9.10;99.90;;;;;;5093731;27;20439;-66
2022/10/30 04:20:36;;;;;;;0.82;0.82;;;9.10;99.90;;;;;;5093984;27;20425;-66
2022/10/30 04:23:04;;;;;;;1.65;1.20;;;9.00;99.90;;;;;;5087670;28;20421;-66
2022/10/30 04:25:33;;;;;;;2.40;1.20;;;8.90;99.90;;;;;;5092513;28;20431;-66
2022/10/30 04:28:03;;;;;;;1.45;1.05;;;8.90;99.90;;;;;;5102413;27;20849;-66
2022/10/30 04:30:34;;;;;;;1.45;1.30;;;8.80;99.90;;;;;;5106679;28;20431;-66
2022/10/30 04:33:02;;;;;;;1.25;1.15;;;8.80;99.90;;;;;;5104405;27;20485;-66
2022/10/30 04:35:33;;;;;;;2.90;1.30;;;8.70;99.90;;;;;;5100016;27;20424;-66
2022/10/30 04:38:03;;;;;;;1.52;1.42;;;8.60;99.90;;;;;;5105262;28;20424;-66
2022/10/30 04:40:32;;;;;;;1.33;1.30;;;8.60;99.90;;;;;;5098224;27;20428;-67
2022/10/30 04:43:01;;;;;;;1.20;1.20;;;8.60;99.90;;;;;;5096051;28;20996;-66
2022/10/30 04:45:28;;;;;;;1.20;0.95;;;8.60;99.90;;;;;;5106124;28;20428;-66
2022/10/30 04:48:05;;;;;;;1.10;1.10;;;8.60;99.90;;;;;;5107323;27;21174;-66
2022/10/30 04:50:33;;;;;;;1.40;1.30;;;8.60;99.90;;;;;;5097128;27;20425;-67
2022/10/30 04:53:10;;;;;;;1.83;1.20;;;8.60;99.90;;;;;;5092231;27;20446;-67
2022/10/30 04:55:37;;;;;;;1.60;1.30;;;8.50;99.90;;;;;;5090568;28;20427;-66
2022/10/30 04:58:06;;;;;;;1.60;1.20;;;8.50;99.90;;;;;;5099996;28;20841;-66
2022/10/30 05:00:33;;;;;;;2.20;1.30;;;8.50;99.90;;;;;;5096392;27;20426;-66
2022/10/30 05:03:03;;;;;;;1.67;1.57;;;8.40;99.90;;;;;;5101858;27;20429;-66
2022/10/30 05:05:30;;;;;;;2.93;1.37;;;8.40;99.90;;;;;;5096525;27;20425;-66
2022/10/30 05:07:57;;;;;;;4.60;1.50;;;8.30;99.90;;;;;;5093357;27;20424;-67
2022/10/30 05:10:24;;;;;;;2.03;1.58;;;8.20;99.90;;;;;;5099388;27;20438;-67
2022/10/30 05:12:53;;;;;;;1.00;1.00;;;8.20;99.90;;;;;;5099682;28;20437;-67
2022/10/30 05:15:20;;;;;;;1.33;1.23;;;8.20;99.90;;;;;;5095785;28;20451;-66
2022/10/30 05:17:52;;;;;;;1.13;1.08;;;8.20;99.90;;;;;;5094821;28;20426;-67
2022/10/30 05:20:19;;;;;;;1.63;1.23;;;8.20;99.90;;;;;;5092047;27;20428;-66
2022/10/30 05:23:00;;;;;;;1.20;1.00;;;8.20;99.90;;;;;;5103668;27;20949;-67
2022/10/30 05:25:27;;;;;;;0.95;0.95;;;8.20;99.90;;;;;;5088816;28;20426;-67
2022/10/30 05:27:59;;;;;;;1.30;1.30;;;8.20;99.90;;;;;;5097793;27;20464;-67
2022/10/30 05:30:27;;;;;;;2.20;1.15;;;8.20;99.90;;;;;;5100455;28;20772;-67
2022/10/30 05:33:05;;;;;;;1.58;1.48;;;8.20;99.90;;;;;;5096377;27;20427;-68
2022/10/30 05:35:34;;;;;;;1.48;1.38;;;8.20;99.90;;;;;;5101350;28;20424;-67
2022/10/30 05:38:02;;;;;;;1.40;1.30;;;8.30;99.90;;;;;;5100590;28;20473;-68
2022/10/30 05:40:33;;;;;;;1.00;1.00;;;8.40;99.90;;;;;;5100545;28;20485;-67
2022/10/30 05:43:03;;;;;;;0.95;0.95;;;8.40;99.90;;;;;;5103153;28;20493;-67
2022/10/30 05:45:30;;;;;;;2.75;1.23;;;8.50;99.90;;;;;;5108763;27;20416;-67
2022/10/30 05:48:00;;;;;;;1.30;1.30;;;8.50;99.90;;;;;;5103347;27;21188;-67
2022/10/30 05:50:28;;;;;;;1.70;1.58;;;8.50;99.90;;;;;;5089660;27;20487;-67
2022/10/30 05:53:00;;;;;;;2.13;1.57;;;8.40;99.90;;;;;;5093968;27;20943;-68
2022/10/30 05:55:27;;;;;;;1.75;1.50;;;8.30;99.90;;;;;;5091644;28;20420;-68
2022/10/30 05:58:02;;;;;;;1.80;1.70;;;8.30;99.90;;;;;;5094409;28;20435;-67
2022/10/30 06:00:31;;;;;;;1.80;1.70;;;8.40;99.90;;;;;;5093890;28;20473;-68
2022/10/30 06:03:03;;;;;;;1.20;1.10;;;8.60;99.90;;;;;;5095706;28;20878;-67
2022/10/30 06:05:32;;;;;;;1.42;1.42;;;8.60;99.90;;;;;;5091450;28;20433;-67
2022/10/30 06:07:59;;;;;;;1.98;1.20;;;8.60;99.90;;;;;;5092490;27;20420;-67
2022/10/30 06:10:27;;;;;;;1.65;1.50;;;8.70;99.90;;;;;;5102441;28;20428;-68
2022/10/30 06:12:54;;;;;;;1.02;1.02;;;8.70;99.90;;;;;;5103558;28;20473;-67
2022/10/30 06:15:22;;;;;;;4.13;1.80;;;8.70;99.90;;;;;;5092229;27;20499;-68
2022/10/30 06:17:49;;;;;;;1.17;1.13;;;8.70;99.90;;;;;;5093506;28;20496;-67
2022/10/30 06:20:17;;;;;;;1.52;1.52;;;8.80;99.90;;;;;;5089929;27;20449;-68
2022/10/30 06:23:01;;;;;;;2.25;1.45;;;8.90;99.90;;;;;;5091167;28;20430;-68
2022/10/30 06:25:30;;;;;;;1.20;1.20;;;8.90;99.90;;;;;;5088431;27;20495;-68
2022/10/30 06:28:02;;;;;;;3.30;1.75;;;8.90;99.90;;;;;;5091447;28;21437;-67
2022/10/30 06:30:29;;;;;;;1.90;1.60;;;8.90;99.90;;;;;;5091787;28;20436;-67
2022/10/30 06:33:00;;;;;;;1.27;1.23;;;8.80;99.90;;;;;;5105434;28;20442;-67
2022/10/30 06:35:28;;;;;;;1.98;1.48;;;8.70;99.90;;;;;;5094647;28;20431;-67
2022/10/30 06:37:57;;;;;;;1.13;1.10;;;8.70;99.90;;;;;;5087810;28;20426;-67
2022/10/30 06:40:24;;;;;;;1.60;1.42;;;8.70;99.90;;;;;;5088887;28;20432;-69
2022/10/30 06:42:52;;;;;;;2.55;1.50;;;8.70;99.90;;;;;;5097248;28;20428;-67
2022/10/30 06:45:20;;;;;;;1.13;1.13;;;8.70;99.90;;;;;;5082658;28;20788;-67
2022/10/30 06:47:47;;;;;;;2.28;1.83;;;8.70;99.90;;;;;;5085033;28;20433;-67
2022/10/30 06:50:16;;;;;;;2.00;1.33;;;8.80;99.90;;;;;;5091221;28;20831;-67
2022/10/30 06:52:47;;;;;;;1.20;1.10;;;8.80;99.90;;;;;;5097251;28;20436;-67
2022/10/30 06:55:13;;;;;;;1.23;1.13;;;8.90;99.90;;;;;;5083576;28;20447;-67
2022/10/30 06:57:43;;;;;;;4.27;1.43;;;9.00;99.90;;;;;;5099787;28;20423;-67
2022/10/30 07:00:13;;;;;;;1.23;1.23;;;9.10;99.90;;;;;;5091490;28;20428;-67
2022/10/30 07:02:40;;;;;;;2.85;1.10;;;9.30;99.90;;;;;;5085768;28;20420;-67
2022/10/30 07:05:07;;;;;;;1.05;1.05;;;9.30;99.90;;;;;;5089236;28;20426;-67
2022/10/30 07:07:35;;;;;;;1.52;1.13;;;9.40;99.90;;;;;;5096383;28;20420;-66
2022/10/30 07:10:01;;;;;;;1.20;1.10;;;9.50;99.90;;;;;;5101536;27;20435;-67
2022/10/30 07:12:28;;;;;;;1.63;1.38;;;9.60;99.90;;;;;;5095831;28;20464;-67
2022/10/30 07:14:55;;;;;;;1.67;1.45;;;9.70;99.90;;;;;;5097842;27;20424;-67
2022/10/30 07:17:21;;;;;;;1.55;1.25;;;9.90;99.90;;;;;;5097249;28;20424;-66
2022/10/30 07:19:48;;;;;;;2.45;1.63;;;10.20;99.90;;;;;;5079515;28;20429;-67
2022/10/30 07:22:18;;;;;;;1.17;0.90;;;10.50;99.90;;;;;;5096793;27;20512;-67
2022/10/30 07:24:45;;;;;;;1.38;1.33;;;10.80;99.90;;;;;;5093618;28;20425;-66
2022/10/30 07:27:14;;;;;;;1.40;1.30;;;10.90;99.90;;;;;;5099077;27;20424;-67
2022/10/30 07:29:41;;;;;;;1.00;1.00;;;11.00;99.90;;;;;;5099295;27;20926;-66
2022/10/30 07:32:11;;;;;;;1.17;1.08;;;11.10;99.90;;;;;;5098544;27;20436;-67
2022/10/30 07:34:38;;;;;;;1.38;1.30;;;11.40;99.90;;;;;;5082247;28;20427;-66
2022/10/30 07:37:05;;;;;;;2.33;1.55;;;11.70;99.90;;;;;;5098787;27;20506;-66
2022/10/30 07:39:31;;;;;;;1.48;1.38;;;12.00;99.90;;;;;;5099299;28;20426;-66
2022/10/30 07:41:58;;;;;;;1.77;1.67;;;12.20;99.90;;;;;;5095327;27;20483;-66
2022/10/30 07:44:25;;;;;;;1.73;1.50;;;12.50;99.90;;;;;;5106115;28;20425;-66
2022/10/30 07:46:51;;;;;;;1.70;1.50;;;12.60;99.90;;;;;;5097403;27;20428;-67
2022/10/30 07:49:18;;;;;;;1.50;1.40;;;12.80;99.90;;;;;;5101017;27;20840;-66
2022/10/30 07:51:44;;;;;;;2.30;2.00;;;12.80;99.90;;;;;;5101669;28;20434;-66
2022/10/30 07:54:11;;;;;;;4.63;1.98;;;12.80;99.90;;;;;;5101468;27;20429;-66
2022/10/30 07:56:38;;;;;;;2.70;2.10;;;12.80;99.90;;;;;;5098317;27;20446;-66
2022/10/30 07:59:04;;;;;;;2.90;2.20;;;12.70;99.90;;;;;;5103563;28;20435;-66
2022/10/30 08:01:31;;;;;;;3.63;2.43;;;12.70;99.90;;;;;;5087190;28;20440;-66
2022/10/30 08:03:58;;;;;;;3.33;2.10;;;12.80;99.90;;;;;;5101364;27;20951;-66
2022/10/30 08:06:25;;;;;;;3.08;2.40;;;12.90;99.90;;;;;;5097610;27;20449;-66
2022/10/30 08:08:56;;;;;;;2.33;2.13;;;13.10;99.90;;;;;;5105585;27;20433;-65
2022/10/30 08:11:22;;;;;;;2.55;2.35;;;13.30;99.90;;;;;;5103667;28;20440;-66
2022/10/30 08:13:51;;;;;;;1.95;1.85;;;13.40;99.90;;;;;;5096686;28;20436;-66
2022/10/30 08:16:18;;;;;;;2.00;1.80;;;13.50;99.90;;;;;;5103669;28;20429;-66
2022/10/30 08:18:45;;;;;;;4.85;2.55;;;13.60;99.90;;;;;;5094362;27;20430;-66
2022/10/30 08:21:14;;;;;;;2.22;2.03;;;13.70;99.90;;;;;;5100765;28;20431;-66
2022/10/30 08:23:41;;;;;;;2.63;2.10;;;13.90;99.90;;;;;;5095525;28;21002;-67
2022/10/30 08:26:08;;;;;;;3.20;2.20;;;14.10;99.90;;;;;;5099808;28;20978;-66
2022/10/30 08:28:34;;;;;;;2.77;2.30;;;14.40;99.90;;;;;;5094257;27;20469;-66
2022/10/30 08:31:02;;;;;;;1.73;1.63;;;14.60;99.90;;;;;;5105342;27;20517;-65
2022/10/30 08:33:29;;;;;;;2.10;2.00;;;14.90;99.90;;;;;;5107105;28;20432;-64
2022/10/30 08:35:58;;;;;;;2.58;2.33;;;15.20;99.90;;;;;;5107730;28;20841;-64
2022/10/30 08:38:28;;;;;;;1.70;1.60;;;15.50;99.90;;;;;;5094137;27;20483;-64
2022/10/30 08:40:55;;;;;;;4.47;2.33;;;15.70;99.90;;;;;;5101795;27;20900;-64
2022/10/30 08:43:25;;;;;;;3.75;1.92;;;16.00;99.90;;;;;;5096136;28;20426;-64
2022/10/30 08:45:57;;;;;;;2.57;1.87;;;16.30;1.00;;;;;;5099545;28;20431;-65
2022/10/30 08:48:24;;;;;;;3.15;1.80;;;16.50;99.90;;;;;;5097312;27;20430;-64
2022/10/30 08:50:50;;;;;;;2.00;1.80;;;16.90;1.00;;;;;;5107765;27;20424;-65
2022/10/30 08:53:19;;;;;;;2.57;2.33;;;17.20;99.90;;;;;;5096070;27;20517;-65
2022/10/30 08:55:46;;;;;;;3.90;1.60;;;17.50;99.90;;;;;;5091908;27;20429;-65
2022/10/30 08:58:12;;;;;;;2.10;1.92;;;17.50;59.00;;;;;;5092378;27;20514;-65
2022/10/30 09:00:39;;;;;;;4.20;2.10;;;17.80;1.00;;;;;;5091729;27;20426;-65
2022/10/30 09:03:06;;;;;;;6.20;2.10;;;17.90;1.00;;;;;;5093367;28;20475;-65
2022/10/30 09:05:32;;;;;;;4.82;2.20;;;17.70;1.00;;;;;;5094366;28;20509;-65
2022/10/30 09:07:59;;;;;;;1.98;1.80;;;17.70;1.00;;;;;;5100239;27;20473;-65
2022/10/30 09:10:28;;;;;;;2.50;2.30;;;18.00;1.00;;;;;;5099619;28;20435;-65
2022/10/30 09:13:00;;;;;;;3.42;2.13;;;18.10;1.00;;;;;;5096056;27;20461;-65
2022/10/30 09:15:27;;;;;;;2.45;2.00;;;18.20;1.00;;;;;;5089880;28;20592;-73
2022/10/30 09:18:02;;;;;;;2.10;1.83;;;18.10;1.00;;;;;;5087392;27;20430;-70
2022/10/30 09:20:30;;;;;;;2.13;1.83;;;18.20;1.00;;;;;;5098220;27;20458;-72
2022/10/30 09:22:57;;;;;;;2.25;2.05;;;18.40;1.00;;;;;;5089831;27;20420;-72
2022/10/30 09:25:24;;;;;;;2.30;2.17;;;18.80;1.00;;;;;;5099615;27;20420;-71
2022/10/30 09:27:51;;;;;;;2.63;2.13;;;18.90;99.90;;;;;;5071914;28;20904;-69
2022/10/30 09:30:18;;;;;;;2.50;2.30;;;19.00;99.90;;;;;;5100360;27;20422;-69
2022/10/30 09:32:45;;;;;;;3.13;2.00;;;18.80;99.90;;;;;;5103949;27;20431;-72
2022/10/30 09:35:16;;;;;;;2.33;2.13;;;18.90;99.90;;;;;;5100297;28;20424;-70
2022/10/30 09:37:43;;;;;;;2.27;2.07;;;19.00;99.90;;;;;;5096745;28;20447;-70
2022/10/30 09:40:36;;;;;;;3.83;2.03;;;19.10;99.90;;;;;;5098618;27;20428;-70
2022/10/30 09:43:30;;;;;;;2.45;2.25;;;18.90;99.90;;;;;;5024838;28;20437;-74
2022/10/30 09:46:25;;;;;;;4.20;2.47;;;18.80;99.90;;;;;;5095401;27;20894;-73
2022/10/30 09:49:13;;;;;;;2.50;2.30;;;19.20;99.90;;;;;;5106746;27;20985;-71
2022/10/30 09:52:14;;;;;;;2.05;1.95;;;19.40;99.90;;;;;;5098992;28;20454;-72
2022/10/30 09:55:00;;;;;;;2.80;2.15;;;20.00;99.90;;;;;;5106529;27;20434;-72
2022/10/30 09:57:39;;;;;;;2.25;2.00;;;20.10;99.90;;;;;;5104069;27;20965;-72
2022/10/30 10:00:12;;;;;;;3.70;2.40;;;20.40;99.90;;;;;;5093594;27;20459;-72
2022/10/30 10:03:02;;;;;;;2.25;1.90;;;20.60;99.90;;;;;;5098741;27;20924;-72
2022/10/30 10:05:47;;;;;;;5.88;2.35;;;21.00;99.90;;;;;;5096601;28;20428;-72
2022/10/30 10:08:33;;;;;;;2.88;2.63;;;21.10;99.90;;;;;;5102649;27;20420;-73
2022/10/30 10:11:09;;;;;;;3.13;2.25;;;21.00;99.90;;;;;;5099998;28;20857;-70
2022/10/30 10:13:51;;;;;;;1.70;1.60;;;20.70;99.90;;;;;;5104864;27;20427;-72
2022/10/30 10:16:19;;;;;;;2.40;2.17;;;20.70;99.90;;;;;;5094527;28;20487;-71
2022/10/30 10:18:55;;;;;;;2.55;2.35;;;20.90;99.90;;;;;;5098168;28;20526;-70
2022/10/30 10:21:28;;;;;;;2.27;2.10;;;21.00;99.90;;;;;;5091383;27;20431;-69
2022/10/30 10:23:59;;;;;;;2.75;2.25;;;20.90;99.90;;;;;;5096220;27;20432;-69
2022/10/30 10:26:49;;;;;;;2.10;2.00;;;20.80;99.90;;;;;;5100994;27;20424;-70
2022/10/30 10:29:51;;;;;;;2.58;2.38;;;20.80;99.90;;;;;;5108255;27;20427;-70
2022/10/30 10:32:29;;;;;;;2.70;2.50;;;21.00;99.90;;;;;;5103970;27;20454;-70
2022/10/30 10:35:08;;;;;;;3.78;2.75;;;20.80;99.90;;;;;;5096293;28;20432;-69
2022/10/30 10:38:12;;;;;;;4.03;2.83;;;20.90;99.90;;;;;;5094295;27;20437;-71
2022/10/30 10:40:54;;;;;;;2.60;2.42;;;21.20;99.90;;;;;;5094352;28;20465;-69
2022/10/30 10:43:28;;;;;;;2.90;2.70;;;21.40;99.90;;;;;;5094964;27;20510;-69
2022/10/30 10:46:25;;;;;;;3.90;2.80;;;21.20;99.90;;;;;;5098099;27;20453;-70
2022/10/30 10:48:55;;;;;;;2.58;2.30;;;21.30;99.90;;;;;;5104907;28;20723;-69
2022/10/30 10:51:30;;;;;;;2.53;2.05;;;22.00;99.90;;;;;;5094750;28;21487;-68
2022/10/30 10:54:10;;;;;;;4.75;2.65;;;21.60;99.90;;;;;;5101038;28;21186;-69
2022/10/30 10:56:41;;;;;;;2.80;2.60;;;21.90;99.90;;;;;;5092782;28;20490;-72
2022/10/30 10:59:51;;;;;;;2.63;2.35;;;21.90;99.90;;;;;;5103052;28;20976;-71
2022/10/30 11:02:41;;;;;;;2.30;2.03;;;22.40;99.90;;;;;;5100589;28;21095;-70
2022/10/30 11:05:17;;;;;;;2.30;2.10;;;22.40;99.90;;;;;;5104082;28;20425;-69
2022/10/30 11:07:49;;;;;;;3.25;2.15;;;21.80;99.90;;;;;;5097178;28;20430;-69
2022/10/30 11:10:18;;;;;;;2.17;2.08;;;21.70;99.90;;;;;;5103880;28;20483;-69
2022/10/30 11:12:45;;;;;;;2.23;2.13;;;21.40;99.90;;;;;;5101653;28;20434;-70
2022/10/30 11:15:37;;;;;;;3.25;2.10;;;21.80;99.90;;;;;;5101596;28;20420;-69
2022/10/30 11:18:09;;;;;;;2.15;1.98;;;22.50;99.90;;;;;;5101516;28;20662;-70
2022/10/30 11:20:52;;;;;;;3.40;1.90;;;23.00;99.90;;;;;;5105118;28;20423;-71
2022/10/30 11:23:34;;;;;;;2.42;2.15;;;23.60;99.90;;;;;;5088191;28;20433;-68
2022/10/30 11:26:01;;;;;;;2.47;2.08;;;23.70;99.90;;;;;;5103949;28;20932;-68
2022/10/30 11:28:37;;;;;;;2.65;2.08;;;23.50;99.90;;;;;;5088899;28;20431;-68
2022/10/30 11:31:21;;;;;;;1.88;1.77;;;23.10;99.90;;;;;;5106683;28;20477;-69
2022/10/30 11:33:49;;;;;;;2.33;2.22;;;23.20;99.90;;;;;;5098999;28;20424;-70
2022/10/30 11:36:25;;;;;;;2.20;2.00;;;23.40;99.90;;;;;;5092862;28;20514;-70
2022/10/30 11:38:55;;;;;;;2.30;1.83;;;23.20;99.90;;;;;;5098903;28;20437;-66
2022/10/30 11:41:22;;;;;;;2.55;2.13;;;23.30;99.90;;;;;;5090043;28;20421;-70
2022/10/30 11:43:49;;;;;;;2.13;1.92;;;23.40;99.90;;;;;;5086912;28;20422;-69
2022/10/30 11:46:22;;;;;;;2.20;2.10;;;22.70;99.90;;;;;;5095671;28;20512;-69
2022/10/30 11:48:53;;;;;;;2.75;2.03;;;22.60;99.90;;;;;;5090617;28;20420;-68
2022/10/30 11:51:31;;;;;;;5.55;2.30;;;22.00;99.90;;;;;;5100440;28;20507;-68
2022/10/30 11:53:59;;;;;;;2.45;2.25;;;21.40;99.90;;;;;;5103937;28;20493;-70
2022/10/30 11:56:27;;;;;;;2.35;2.25;;;21.60;99.90;;;;;;5104817;27;20424;-70
2022/10/30 11:58:57;;;;;;;2.17;2.08;;;22.00;99.90;;;;;;5094959;28;20436;-69
2022/10/30 12:01:34;;;;;;;2.47;2.28;;;21.90;99.90;;;;;;5106426;27;21158;-70
2022/10/30 12:04:22;;;;;;;2.25;2.13;;;22.10;99.90;;;;;;5094350;27;20421;-71
2022/10/30 12:07:21;;;;;;;2.00;1.90;;;22.50;99.90;;;;;;5105612;27;20479;-69
2022/10/30 12:09:49;;;;;;;2.45;2.25;;;22.50;99.90;;;;;;5096658;28;20432;-69
2022/10/30 12:12:24;;;;;;;2.30;2.10;;;22.40;99.90;;;;;;5097532;28;20977;-70
2022/10/30 12:14:51;;;;;;;2.33;2.05;;;22.00;99.90;;;;;;5097030;27;20429;-70
2022/10/30 12:17:20;;;;;;;2.05;1.95;;;22.00;99.90;;;;;;5096199;27;20437;-71
2022/10/30 12:19:53;;;;;;;2.53;2.33;;;22.30;99.90;;;;;;5102894;27;20455;-69
2022/10/30 12:22:32;;;;;;;2.15;1.83;;;22.50;99.90;;;;;;5097011;27;21030;-70
2022/10/30 12:25:06;;;;;;;3.55;2.17;;;22.90;99.90;;;;;;5096076;27;20897;-68
2022/10/30 12:27:36;;;;;;;1.92;1.50;;;22.90;99.90;;;;;;5095573;27;20424;-70
2022/10/30 12:30:07;;;;;;;4.00;2.03;;;23.10;99.90;;;;;;5097923;28;20429;-68
2022/10/30 12:33:08;;;;;;;2.78;1.92;;;23.10;99.90;;;;;;5096074;27;20826;-68
2022/10/30 12:35:58;;;;;;;2.60;2.00;;;23.20;99.90;;;;;;5095692;28;20906;-70
2022/10/30 12:38:37;;;;;;;2.33;2.13;;;22.90;99.90;;;;;;5092505;28;20974;-69
2022/10/30 12:41:24;;;;;;;2.28;2.17;;;23.00;99.90;;;;;;5097362;27;20433;-68
2022/10/30 12:44:26;;;;;;;2.27;1.73;;;23.40;99.90;;;;;;5104025;27;20416;-66
2022/10/30 12:47:07;;;;;;;3.03;1.80;;;23.70;99.90;;;;;;5086891;28;20914;-67
2022/10/30 12:49:53;;;;;;;2.75;1.90;;;23.60;99.90;;;;;;5094117;27;20463;-68
2022/10/30 12:52:36;;;;;;;2.10;1.80;;;23.60;99.90;;;;;;5098802;27;20509;-66
2022/10/30 12:55:24;;;;;;;1.52;1.40;;;23.70;99.90;;;;;;5096797;27;20502;-66
2022/10/30 12:58:09;;;;;;;2.63;1.92;;;23.80;99.90;;;;;;5097660;27;20550;-67
2022/10/30 13:00:44;;;;;;;2.38;1.90;;;24.00;99.90;;;;;;5100030;27;20517;-67
2022/10/30 13:03:22;;;;;;;1.58;1.48;;;24.10;99.90;;;;;;5100547;27;20427;-67
2022/10/30 13:06:11;;;;;;;2.13;1.83;;;24.10;99.90;;;;;;5106774;27;20443;-67
2022/10/30 13:09:06;;;;;;;2.08;1.55;;;24.40;99.90;;;;;;5088117;27;20422;-67
2022/10/30 13:11:55;;;;;;;2.40;1.48;;;24.50;99.90;;;;;;5095182;28;20517;-67
2022/10/30 13:15:08;;;;;;;2.20;1.60;;;24.90;99.90;;;;;;5092877;27;20463;-68
2022/10/30 13:17:34;;;;;;;1.60;1.20;;;25.00;99.90;;;;;;5031858;28;20784;-68
2022/10/30 13:20:08;;;;;;;1.63;1.53;;;25.30;99.90;;;;;;5105821;27;21032;-68